Dobrodošli na spletni strani vremenske postaje Senovo. Vse informacije so informativnega značaja, saj vremenska postaja ni del državne mreže meteoroloških postaj. AKTUALNIH OBVESTIL NI.


Sneg/Led Od: 23-02-2018 00:00 Do: 23:59 Opozorilo za: Sneg/Led Stopnja: Rumena info button

Pogled proti Armezu več informacij Pogled proti Armezu


Lisca več informacij Lisca


Radar strel več informacij blitzortung!


opozorilo za sneg/led več informacij rain snow radar


Obiščite še:

Template documentation
and downloads

And another site



Weather Underground, zgodovina - Tekstovno

Dnevni povzetek za Januar 2, 2018 Enote:  Obe    Angleško   Metrično
« Predhodni Dan
Naslednji Dan »
Dnevni Tedenski Mesečni Letni Po meri
  Višja: Nižja: Povprečje:
Temperatura: TemperatureC °F /  -17.8 °C 1.2 °F /  -17.1 °C 3.6 °F /  -15.8 °C
Točka rosišča: DewpointC °F /  -17.8 °C 0.6 °F /  -17.4 °C 2.6 °F /  -16.3 °C
Vlažnost: Humidity % 88 % 93 %
Hitrost vetra: WindSpeedKMH mph /  0 km/h - 0.9 mph /  1.4 km/h
Sunki vetra: WindSpeedGustKMH mph /  0 km/h - -
Veter:- - SW
Zračni tlak: PressurehPa in /  0 hPa 1005.0 in /  34029.3 hPa -
Padavine: 3.0 in /  76.2 mm    
Historical Graphs
 
 
Tabelarni podarki za Januar 2, 2018
Čas Temperatura Točka rosišča Zračni tlak Veter Hitrost vetra Sunki vetra Vlažnost Intenziteta padavin (urna)
TemperatureC °F /  -17.8 °C DewpointC °F /  -17.8 °C PressurehPa in /  0 hPa Calm     Humidity % HourlyPrecipMM in /  0 mm
00:00 4.6 °F /  -15.2 °C 2.8 °F /  -16.2 °C 1007.0 in /  34097 hPa East 5.6 mph /  9 km/h 10.5 mph /  16.9 km/h 88 % 1.3 in /  33.02 mm
00:02 4.6 °F /  -15.2 °C 2.8 °F /  -16.2 °C 1007.0 in /  34097 hPa ENE 5.0 mph /  8 km/h 9.3 mph /  15 km/h 88 % 1.0 in /  25.4 mm
00:07 4.5 °F /  -15.3 °C 2.7 °F /  -16.3 °C 1007.0 in /  34097 hPa ENE 3.4 mph /  5.5 km/h 6.1 mph /  9.8 km/h 88 % 1.0 in /  25.4 mm
00:09 4.5 °F /  -15.3 °C 2.7 °F /  -16.3 °C 1007.0 in /  34097 hPa ENE 3.4 mph /  5.5 km/h 7.9 mph /  12.7 km/h 88 % 0.8 in /  20.32 mm
00:14 4.5 °F /  -15.3 °C 2.7 °F /  -16.3 °C 1006.0 in /  34063.2 hPa ESE 4.5 mph /  7.2 km/h 10.1 mph /  16.3 km/h 88 % 0.5 in /  12.7 mm
00:19 4.6 °F /  -15.2 °C 2.8 °F /  -16.2 °C 1006.0 in /  34063.2 hPa East 6.1 mph /  9.8 km/h 10.1 mph /  16.3 km/h 88 % 0.3 in /  7.62 mm
00:22 4.6 °F /  -15.2 °C 2.8 °F /  -16.2 °C 1006.0 in /  34063.2 hPa ENE 6.8 mph /  10.9 km/h 10.1 mph /  16.3 km/h 88 % 0.3 in /  7.62 mm
00:24 4.6 °F /  -15.2 °C 2.8 °F /  -16.2 °C 1006.0 in /  34063.2 hPa NE 6.9 mph /  11.1 km/h 10.1 mph /  16.3 km/h 88 % 0.3 in /  7.62 mm
00:26 4.5 °F /  -15.3 °C 2.7 °F /  -16.3 °C 1006.0 in /  34063.2 hPa NE 6.8 mph /  10.9 km/h 10.1 mph /  16.3 km/h 88 % 0.5 in /  12.7 mm
00:27 4.5 °F /  -15.3 °C 2.7 °F /  -16.3 °C 1006.0 in /  34063.2 hPa NE 6.6 mph /  10.6 km/h 10.1 mph /  16.3 km/h 88 % 0.5 in /  12.7 mm
00:32 4.5 °F /  -15.3 °C 2.7 °F /  -16.3 °C 1006.0 in /  34063.2 hPa WSW 6.6 mph /  10.6 km/h 10.5 mph /  16.9 km/h 88 % 0.3 in /  7.62 mm
00:37 4.4 °F /  -15.3 °C 2.7 °F /  -16.3 °C 1006.0 in /  34063.2 hPa SW 4.7 mph /  7.6 km/h 10.5 mph /  16.9 km/h 89 % 0.3 in /  7.62 mm
00:38 4.4 °F /  -15.3 °C 2.7 °F /  -16.3 °C 1006.0 in /  34063.2 hPa SW 4.7 mph /  7.6 km/h 10.5 mph /  16.9 km/h 89 % 0.3 in /  7.62 mm
00:39 4.4 °F /  -15.3 °C 2.7 °F /  -16.3 °C 1006.0 in /  34063.2 hPa SW 4.3 mph /  6.9 km/h 10.5 mph /  16.9 km/h 89 % 0.3 in /  7.62 mm
00:44 4.4 °F /  -15.3 °C 2.7 °F /  -16.3 °C 1006.0 in /  34063.2 hPa SW 1.1 mph /  1.8 km/h 5.8 mph /  9.3 km/h 89 % 0.5 in /  12.7 mm
00:45 4.4 °F /  -15.3 °C 2.7 °F /  -16.3 °C 1006.0 in /  34063.2 hPa SW 1.1 mph /  1.8 km/h 5.8 mph /  9.3 km/h 89 % 0.5 in /  12.7 mm
00:50 4.4 °F /  -15.3 °C 2.7 °F /  -16.3 °C 1006.0 in /  34063.2 hPa WSW 1.1 mph /  1.8 km/h 6.9 mph /  11.1 km/h 89 % 0.5 in /  12.7 mm
00:52 4.4 °F /  -15.3 °C 2.7 °F /  -16.3 °C 1006.0 in /  34063.2 hPa SW 2.1 mph /  3.4 km/h 6.9 mph /  11.1 km/h 89 % 0.5 in /  12.7 mm
00:57 4.3 °F /  -15.4 °C 2.7 °F /  -16.3 °C 1006.0 in /  34063.2 hPa SW 2.9 mph /  4.7 km/h 6.9 mph /  11.1 km/h 89 % 0.5 in /  12.7 mm
01:00 4.3 °F /  -15.4 °C 2.7 °F /  -16.3 °C 1006.0 in /  34063.2 hPa SW 2.4 mph /  3.9 km/h 6.9 mph /  11.1 km/h 89 % 0.5 in /  12.7 mm
01:05 4.3 °F /  -15.4 °C 2.7 °F /  -16.3 °C 1006.0 in /  34063.2 hPa WSW 1.3 mph /  2.1 km/h 5.0 mph /  8 km/h 89 % 0.5 in /  12.7 mm
01:10 4.3 °F /  -15.4 °C 2.7 °F /  -16.3 °C 1006.0 in /  34063.2 hPa WSW 2.6 mph /  4.2 km/h 5.5 mph /  8.9 km/h 89 % 0.5 in /  12.7 mm
01:15 4.2 °F /  -15.4 °C 2.7 °F /  -16.3 °C 1006.0 in /  34063.2 hPa SW 3.5 mph /  5.6 km/h 5.5 mph /  8.9 km/h 90 % 0.8 in /  20.32 mm
01:20 4.2 °F /  -15.4 °C 2.7 °F /  -16.3 °C 1006.0 in /  34063.2 hPa SW 2.4 mph /  3.9 km/h 5.5 mph /  8.9 km/h 90 % 0.8 in /  20.32 mm
01:22 4.2 °F /  -15.4 °C 2.7 °F /  -16.3 °C 1006.0 in /  34063.2 hPa WSW 1.6 mph /  2.6 km/h 4.7 mph /  7.6 km/h 90 % 1.0 in /  25.4 mm
01:24 4.2 °F /  -15.4 °C 2.7 °F /  -16.3 °C 1006.0 in /  34063.2 hPa West 1.0 mph /  1.6 km/h 4.0 mph /  6.4 km/h 90 % 1.0 in /  25.4 mm
01:29 4.2 °F /  -15.4 °C 2.7 °F /  -16.3 °C 1006.0 in /  34063.2 hPa Calm     90 % 1.0 in /  25.4 mm
01:31 4.2 °F /  -15.4 °C 2.7 °F /  -16.3 °C 1006.0 in /  34063.2 hPa SSW 0.3 mph /  0.5 km/h 4.0 mph /  6.4 km/h 90 % 1.0 in /  25.4 mm
01:36 4.1 °F /  -15.5 °C 2.6 °F /  -16.3 °C 1006.0 in /  34063.2 hPa SW 1.1 mph /  1.8 km/h 5.0 mph /  8 km/h 90 % 1.3 in /  33.02 mm
01:39 4.1 °F /  -15.5 °C 2.6 °F /  -16.3 °C 1006.0 in /  34063.2 hPa WSW 1.8 mph /  2.9 km/h 5.0 mph /  8 km/h 90 % 1.3 in /  33.02 mm
01:44 4.1 °F /  -15.5 °C 2.6 °F /  -16.3 °C 1006.0 in /  34063.2 hPa SW 2.4 mph /  3.9 km/h 6.1 mph /  9.8 km/h 90 % 1.0 in /  25.4 mm
01:46 4.1 °F /  -15.5 °C 2.6 °F /  -16.3 °C 1006.0 in /  34063.2 hPa WSW 2.9 mph /  4.7 km/h 6.1 mph /  9.8 km/h 90 % 1.0 in /  25.4 mm
01:51 4.1 °F /  -15.5 °C 2.8 °F /  -16.2 °C 1006.0 in /  34063.2 hPa SW 3.5 mph /  5.6 km/h 6.1 mph /  9.8 km/h 91 % 1.3 in /  33.02 mm
01:54 4.1 °F /  -15.5 °C 2.8 °F /  -16.2 °C 1006.0 in /  34063.2 hPa WSW 3.9 mph /  6.3 km/h 5.8 mph /  9.3 km/h 91 % 1.3 in /  33.02 mm
01:56 4.1 °F /  -15.5 °C 2.8 °F /  -16.2 °C 1006.0 in /  34063.2 hPa SW 3.1 mph /  5 km/h 5.8 mph /  9.3 km/h 91 % 1.5 in /  38.1 mm
02:01 4.0 °F /  -15.6 °C 2.7 °F /  -16.3 °C 1006.0 in /  34063.2 hPa WSW 1.6 mph /  2.6 km/h 5.8 mph /  9.3 km/h 91 % 1.5 in /  38.1 mm
02:04 4.0 °F /  -15.6 °C 2.7 °F /  -16.3 °C 1006.0 in /  34063.2 hPa Calm     91 % 1.5 in /  38.1 mm
02:09 4.0 °F /  -15.6 °C 2.7 °F /  -16.3 °C 1006.0 in /  34063.2 hPa South 0.2 mph /  0.3 km/h 2.6 mph /  4.2 km/h 91 % 1.8 in /  45.72 mm
02:10 4.0 °F /  -15.6 °C 2.7 °F /  -16.3 °C 1006.0 in /  34063.2 hPa South 0.2 mph /  0.3 km/h 2.6 mph /  4.2 km/h 91 % 1.8 in /  45.72 mm
02:15 4.0 °F /  -15.6 °C 2.7 °F /  -16.3 °C 1006.0 in /  34063.2 hPa South 0.2 mph /  0.3 km/h 2.6 mph /  4.2 km/h 91 % 1.8 in /  45.72 mm
02:16 4.0 °F /  -15.6 °C 2.7 °F /  -16.3 °C 1006.0 in /  34063.2 hPa South 0.2 mph /  0.3 km/h 2.6 mph /  4.2 km/h 91 % 1.8 in /  45.72 mm
02:21 4.0 °F /  -15.6 °C 2.7 °F /  -16.3 °C 1006.0 in /  34063.2 hPa Calm     91 % 1.8 in /  45.72 mm
02:24 4.0 °F /  -15.6 °C 2.7 °F /  -16.3 °C 1006.0 in /  34063.2 hPa Calm     91 % 1.8 in /  45.72 mm
02:29 4.0 °F /  -15.6 °C 2.7 °F /  -16.3 °C 1006.0 in /  34063.2 hPa SSE 0.5 mph /  0.8 km/h 5.5 mph /  8.9 km/h 91 % 1.3 in /  33.02 mm
02:30 4.0 °F /  -15.6 °C 2.7 °F /  -16.3 °C 1006.0 in /  34063.2 hPa SSE 0.8 mph /  1.3 km/h 5.5 mph /  8.9 km/h 91 % 1.3 in /  33.02 mm
02:35 4.0 °F /  -15.6 °C 2.8 °F /  -16.2 °C 1006.0 in /  34063.2 hPa SSE 1.0 mph /  1.6 km/h 5.5 mph /  8.9 km/h 92 % 1.3 in /  33.02 mm
02:39 3.9 °F /  -15.6 °C 2.7 °F /  -16.3 °C 1006.0 in /  34063.2 hPa SSE 0.5 mph /  0.8 km/h 3.5 mph /  5.6 km/h 92 % 1.3 in /  33.02 mm
02:40 3.9 °F /  -15.6 °C 2.7 °F /  -16.3 °C 1006.0 in /  34063.2 hPa South 0.2 mph /  0.3 km/h 3.5 mph /  5.6 km/h 92 % 1.3 in /  33.02 mm
02:44 3.9 °F /  -15.6 °C 2.7 °F /  -16.3 °C 1006.0 in /  34063.2 hPa ESE 0.5 mph /  0.8 km/h 4.7 mph /  7.6 km/h 92 % 1.0 in /  25.4 mm
02:46 3.9 °F /  -15.6 °C 2.7 °F /  -16.3 °C 1006.0 in /  34063.2 hPa ESE 0.5 mph /  0.8 km/h 4.7 mph /  7.6 km/h 92 % 1.0 in /  25.4 mm
02:51 3.9 °F /  -15.6 °C 2.7 °F /  -16.3 °C 1006.0 in /  34063.2 hPa ESE 0.5 mph /  0.8 km/h 4.7 mph /  7.6 km/h 92 % 1.0 in /  25.4 mm
02:56 3.8 °F /  -15.7 °C 2.6 °F /  -16.3 °C 1006.0 in /  34063.2 hPa Calm     92 % 0.5 in /  12.7 mm
02:57 3.8 °F /  -15.7 °C 2.6 °F /  -16.3 °C 1006.0 in /  34063.2 hPa Calm     92 % 0.5 in /  12.7 mm
03:02 3.8 °F /  -15.7 °C 2.8 °F /  -16.2 °C 1006.0 in /  34063.2 hPa SW 0.6 mph /  1 km/h 3.5 mph /  5.6 km/h 93 % 0.5 in /  12.7 mm
03:07 3.8 °F /  -15.7 °C 2.8 °F /  -16.2 °C 1006.0 in /  34063.2 hPa SW 0.6 mph /  1 km/h 3.5 mph /  5.6 km/h 93 % 0.8 in /  20.32 mm
03:13 3.8 °F /  -15.7 °C 2.8 °F /  -16.2 °C 1006.0 in /  34063.2 hPa Calm   4.0 mph /  6.4 km/h 93 % 0.8 in /  20.32 mm
03:18 3.8 °F /  -15.7 °C 2.8 °F /  -16.2 °C 1006.0 in /  34063.2 hPa WSW 1.3 mph /  2.1 km/h 4.3 mph /  6.9 km/h 93 % 0.5 in /  12.7 mm
03:19 3.8 °F /  -15.7 °C 2.8 °F /  -16.2 °C 1006.0 in /  34063.2 hPa WSW 1.3 mph /  2.1 km/h 4.3 mph /  6.9 km/h 93 % 0.5 in /  12.7 mm
03:24 3.8 °F /  -15.7 °C 2.8 °F /  -16.2 °C 1006.0 in /  34063.2 hPa WSW 1.8 mph /  2.9 km/h 4.7 mph /  7.6 km/h 93 % 0.3 in /  7.62 mm
03:26 3.8 °F /  -15.7 °C 2.8 °F /  -16.2 °C 1006.0 in /  34063.2 hPa WSW 1.9 mph /  3.1 km/h 4.7 mph /  7.6 km/h 93 % 0.3 in /  7.62 mm
03:31 3.8 °F /  -15.7 °C 2.8 °F /  -16.2 °C 1006.0 in /  34063.2 hPa SW 1.8 mph /  2.9 km/h 4.7 mph /  7.6 km/h 93 % 0.3 in /  7.62 mm
03:32 3.8 °F /  -15.7 °C 2.8 °F /  -16.2 °C 1006.0 in /  34063.2 hPa SW 1.8 mph /  2.9 km/h 4.7 mph /  7.6 km/h 93 % 0.3 in /  7.62 mm
03:37 3.7 °F /  -15.7 °C 2.7 °F /  -16.3 °C 1006.0 in /  34063.2 hPa WSW 0.2 mph /  0.3 km/h 2.1 mph /  3.4 km/h 93 % 0.3 in /  7.62 mm
03:38 3.7 °F /  -15.7 °C 2.7 °F /  -16.3 °C 1006.0 in /  34063.2 hPa North 0.2 mph /  0.3 km/h   93 % 0.3 in /  7.62 mm
03:43 3.7 °F /  -15.7 °C 2.7 °F /  -16.3 °C 1007.0 in /  34097 hPa Calm     93 % 0.3 in /  7.62 mm
03:44 3.7 °F /  -15.7 °C 2.7 °F /  -16.3 °C 1007.0 in /  34097 hPa Calm     93 % 0.3 in /  7.62 mm
03:49 3.7 °F /  -15.7 °C 2.7 °F /  -16.3 °C 1007.0 in /  34097 hPa Calm     93 % 0.3 in /  7.62 mm
03:50 3.7 °F /  -15.7 °C 2.7 °F /  -16.3 °C 1007.0 in /  34097 hPa Calm     93 % 0.3 in /  7.62 mm
03:55 3.7 °F /  -15.7 °C 2.7 °F /  -16.3 °C 1007.0 in /  34097 hPa Calm     93 % 0.3 in /  7.62 mm
04:00 3.7 °F /  -15.7 °C 2.7 °F /  -16.3 °C 1007.0 in /  34097 hPa Calm     93 % 0.3 in /  7.62 mm
04:04 3.7 °F /  -15.7 °C 2.8 °F /  -16.2 °C 1007.0 in /  34097 hPa Calm     94 % 0.3 in /  7.62 mm
04:06 3.7 °F /  -15.7 °C 2.8 °F /  -16.2 °C 1007.0 in /  34097 hPa Calm     94 % 0.3 in /  7.62 mm
04:12 3.7 °F /  -15.7 °C 2.8 °F /  -16.2 °C 1007.0 in /  34097 hPa Calm     94 % 0.0 in /  0 mm
04:17 3.7 °F /  -15.7 °C 2.8 °F /  -16.2 °C 1007.0 in /  34097 hPa Calm     94 % 0.0 in /  0 mm
04:20 3.7 °F /  -15.7 °C 2.8 °F /  -16.2 °C 1007.0 in /  34097 hPa Calm     94 % 0.0 in /  0 mm
04:25 3.7 °F /  -15.7 °C 2.8 °F /  -16.2 °C 1007.0 in /  34097 hPa Calm     94 % 0.0 in /  0 mm
04:29 3.7 °F /  -15.7 °C 2.8 °F /  -16.2 °C 1006.0 in /  34063.2 hPa Calm     94 % 0.0 in /  0 mm
04:34 3.7 °F /  -15.7 °C 2.8 °F /  -16.2 °C 1006.0 in /  34063.2 hPa Calm     94 % 0.0 in /  0 mm
04:38 3.6 °F /  -15.8 °C 2.7 °F /  -16.3 °C 1006.0 in /  34063.2 hPa Calm     94 % 0.0 in /  0 mm
04:43 3.6 °F /  -15.8 °C 2.7 °F /  -16.3 °C 1006.0 in /  34063.2 hPa Calm     94 % 0.0 in /  0 mm
04:47 3.6 °F /  -15.8 °C 2.7 °F /  -16.3 °C 1006.0 in /  34063.2 hPa Calm     94 % 0.0 in /  0 mm
04:51 3.6 °F /  -15.8 °C 2.7 °F /  -16.3 °C 1006.0 in /  34063.2 hPa Calm     94 % 0.0 in /  0 mm
04:56 3.5 °F /  -15.8 °C 2.6 °F /  -16.3 °C 1006.0 in /  34063.2 hPa Calm     94 % 0.0 in /  0 mm
04:57 3.4 °F /  -15.9 °C 2.5 °F /  -16.4 °C 1005.0 in /  34029.3 hPa Calm     94 % 0.0 in /  0 mm
05:02 3.3 °F /  -15.9 °C 2.4 °F /  -16.4 °C 1005.0 in /  34029.3 hPa Calm     94 % 0.0 in /  0 mm
05:08 3.3 °F /  -15.9 °C 2.4 °F /  -16.4 °C 1005.0 in /  34029.3 hPa Calm     94 % 0.0 in /  0 mm
05:19 3.1 °F /  -16.1 °C 2.2 °F /  -16.6 °C 1006.0 in /  34063.2 hPa WNW 0.3 mph /  0.5 km/h 4.3 mph /  6.9 km/h 94 % 0.0 in /  0 mm
05:24 3.1 °F /  -16.1 °C 2.2 °F /  -16.6 °C 1006.0 in /  34063.2 hPa WSW 1.9 mph /  3.1 km/h 5.5 mph /  8.9 km/h 94 % 0.0 in /  0 mm
05:27 3.1 °F /  -16.1 °C 2.2 °F /  -16.6 °C 1006.0 in /  34063.2 hPa SW 2.4 mph /  3.9 km/h 5.5 mph /  8.9 km/h 94 % 0.0 in /  0 mm
05:32 3.1 °F /  -16.1 °C 2.2 °F /  -16.6 °C 1006.0 in /  34063.2 hPa SW 2.1 mph /  3.4 km/h 4.3 mph /  6.9 km/h 94 % 0.0 in /  0 mm
05:37 3.1 °F /  -16.1 °C 2.2 °F /  -16.6 °C 1006.0 in /  34063.2 hPa SW 0.5 mph /  0.8 km/h 3.2 mph /  5.1 km/h 94 % 0.0 in /  0 mm
05:39 3.0 °F /  -16.1 °C 2.1 °F /  -16.6 °C 1006.0 in /  34063.2 hPa WNW 0.2 mph /  0.3 km/h 1.4 mph /  2.3 km/h 94 % 0.0 in /  0 mm
05:43 3.0 °F /  -16.1 °C 2.1 °F /  -16.6 °C 1007.0 in /  34097 hPa Calm   1.4 mph /  2.3 km/h 94 % 0.0 in /  0 mm
05:49 3.0 °F /  -16.1 °C 2.1 °F /  -16.6 °C 1007.0 in /  34097 hPa Calm     94 % 0.0 in /  0 mm
05:54 3.0 °F /  -16.1 °C 2.1 °F /  -16.6 °C 1007.0 in /  34097 hPa Calm     94 % 0.0 in /  0 mm
05:58 3.0 °F /  -16.1 °C 2.1 °F /  -16.6 °C 1007.0 in /  34097 hPa Calm     94 % 0.0 in /  0 mm
06:03 3.1 °F /  -16.1 °C 2.2 °F /  -16.6 °C 1007.0 in /  34097 hPa Calm     94 % 0.0 in /  0 mm
06:05 3.1 °F /  -16.1 °C 2.2 °F /  -16.6 °C 1007.0 in /  34097 hPa Calm     94 % 0.0 in /  0 mm
06:10 3.1 °F /  -16.1 °C 2.2 °F /  -16.6 °C 1007.0 in /  34097 hPa Calm     94 % 0.0 in /  0 mm
06:12 3.1 °F /  -16.1 °C 2.2 °F /  -16.6 °C 1007.0 in /  34097 hPa Calm     94 % 0.0 in /  0 mm
06:14 3.1 °F /  -16.1 °C 2.2 °F /  -16.6 °C 1007.0 in /  34097 hPa SSE 0.2 mph /  0.3 km/h 4.0 mph /  6.4 km/h 94 % 0.0 in /  0 mm
06:18 3.1 °F /  -16.1 °C 2.2 °F /  -16.6 °C 1007.0 in /  34097 hPa SSE 0.6 mph /  1 km/h 4.0 mph /  6.4 km/h 94 % 0.0 in /  0 mm
06:23 3.0 °F /  -16.1 °C 2.1 °F /  -16.6 °C 1007.0 in /  34097 hPa SSE 0.6 mph /  1 km/h 4.0 mph /  6.4 km/h 94 % 0.0 in /  0 mm
06:24 3.0 °F /  -16.1 °C 2.1 °F /  -16.6 °C 1007.0 in /  34097 hPa SSE 0.6 mph /  1 km/h 2.6 mph /  4.2 km/h 94 % 0.0 in /  0 mm
06:26 3.0 °F /  -16.1 °C 2.3 °F /  -16.5 °C 1007.0 in /  34097 hPa SSE 0.3 mph /  0.5 km/h 2.6 mph /  4.2 km/h 95 % 0.0 in /  0 mm
06:31 3.0 °F /  -16.1 °C 2.3 °F /  -16.5 °C 1008.0 in /  34130.9 hPa Calm     95 % 0.0 in /  0 mm
06:32 3.0 °F /  -16.1 °C 2.3 °F /  -16.5 °C 1008.0 in /  34130.9 hPa Calm     95 % 0.0 in /  0 mm
06:37 3.0 °F /  -16.1 °C 2.3 °F /  -16.5 °C 1008.0 in /  34130.9 hPa Calm     95 % 0.0 in /  0 mm
06:38 3.0 °F /  -16.1 °C 2.3 °F /  -16.5 °C 1008.0 in /  34130.9 hPa Calm     95 % 0.0 in /  0 mm
06:43 3.0 °F /  -16.1 °C 2.3 °F /  -16.5 °C 1006.0 in /  34063.2 hPa Calm     95 % 0.0 in /  0 mm
06:45 3.0 °F /  -16.1 °C 2.3 °F /  -16.5 °C 1006.0 in /  34063.2 hPa Calm     95 % 0.0 in /  0 mm
06:50 3.0 °F /  -16.1 °C 2.3 °F /  -16.5 °C 1006.0 in /  34063.2 hPa Calm     95 % 0.0 in /  0 mm
06:55 3.0 °F /  -16.1 °C 2.3 °F /  -16.5 °C 1006.0 in /  34063.2 hPa Calm     95 % 0.0 in /  0 mm
06:56 3.0 °F /  -16.1 °C 2.3 °F /  -16.5 °C 1006.0 in /  34063.2 hPa Calm     95 % 0.0 in /  0 mm
07:01 3.0 °F /  -16.1 °C 2.3 °F /  -16.5 °C 1007.0 in /  34097 hPa Calm     95 % 0.0 in /  0 mm
07:06 3.0 °F /  -16.1 °C 2.3 °F /  -16.5 °C 1007.0 in /  34097 hPa Calm     95 % 0.0 in /  0 mm
07:11 3.0 °F /  -16.1 °C 2.3 °F /  -16.5 °C 1007.0 in /  34097 hPa Calm     95 % 0.0 in /  0 mm
07:13 2.9 °F /  -16.2 °C 2.2 °F /  -16.6 °C 1007.0 in /  34097 hPa Calm     95 % 0.0 in /  0 mm
07:18 2.8 °F /  -16.2 °C 2.1 °F /  -16.6 °C 1007.0 in /  34097 hPa Calm     95 % 0.0 in /  0 mm
07:19 2.8 °F /  -16.2 °C 2.1 °F /  -16.6 °C 1007.0 in /  34097 hPa Calm     95 % 0.0 in /  0 mm
07:20 2.8 °F /  -16.2 °C 2.1 °F /  -16.6 °C 1007.0 in /  34097 hPa Calm     95 % 0.0 in /  0 mm
07:25 2.6 °F /  -16.3 °C 1.9 °F /  -16.7 °C 1007.0 in /  34097 hPa Calm     95 % 0.0 in /  0 mm
07:30 2.6 °F /  -16.3 °C 1.9 °F /  -16.7 °C 1007.0 in /  34097 hPa Calm     95 % 0.0 in /  0 mm
07:35 2.5 °F /  -16.4 °C 1.8 °F /  -16.8 °C 1007.0 in /  34097 hPa Calm     95 % 0.0 in /  0 mm
07:39 2.5 °F /  -16.4 °C 1.8 °F /  -16.8 °C 1007.0 in /  34097 hPa Calm     95 % 0.0 in /  0 mm
07:43 2.5 °F /  -16.4 °C 1.8 °F /  -16.8 °C 1008.0 in /  34130.9 hPa Calm     95 % 0.0 in /  0 mm
07:45 2.5 °F /  -16.4 °C 1.8 °F /  -16.8 °C 1008.0 in /  34130.9 hPa Calm     95 % 0.0 in /  0 mm
07:50 2.5 °F /  -16.4 °C 1.8 °F /  -16.8 °C 1008.0 in /  34130.9 hPa Calm     95 % 0.0 in /  0 mm
07:55 2.5 °F /  -16.4 °C 1.8 °F /  -16.8 °C 1008.0 in /  34130.9 hPa Calm     95 % 0.0 in /  0 mm
07:57 2.5 °F /  -16.4 °C 1.8 °F /  -16.8 °C 1008.0 in /  34130.9 hPa Calm     95 % 0.0 in /  0 mm
07:58 2.5 °F /  -16.4 °C 1.8 °F /  -16.8 °C 1008.0 in /  34130.9 hPa Calm     95 % 0.0 in /  0 mm
08:02 2.6 °F /  -16.3 °C 1.9 °F /  -16.7 °C 1008.0 in /  34130.9 hPa Calm     95 % 0.0 in /  0 mm
08:05 2.6 °F /  -16.3 °C 1.9 °F /  -16.7 °C 1008.0 in /  34130.9 hPa Calm     95 % 0.0 in /  0 mm
08:09 2.6 °F /  -16.3 °C 1.9 °F /  -16.7 °C 1008.0 in /  34130.9 hPa Calm     95 % 0.0 in /  0 mm
08:14 2.7 °F /  -16.3 °C 2.0 °F /  -16.7 °C 1008.0 in /  34130.9 hPa Calm     95 % 0.0 in /  0 mm
08:16 2.7 °F /  -16.3 °C 2.0 °F /  -16.7 °C 1008.0 in /  34130.9 hPa Calm     95 % 0.0 in /  0 mm
08:18 2.7 °F /  -16.3 °C 2.0 °F /  -16.7 °C 1008.0 in /  34130.9 hPa Calm     95 % 0.0 in /  0 mm
08:24 2.7 °F /  -16.3 °C 2.0 °F /  -16.7 °C 1008.0 in /  34130.9 hPa Calm     95 % 0.0 in /  0 mm
08:29 2.8 °F /  -16.2 °C 2.2 °F /  -16.6 °C 1009.0 in /  34164.7 hPa Calm     96 % 0.0 in /  0 mm
08:32 2.8 °F /  -16.2 °C 2.2 °F /  -16.6 °C 1009.0 in /  34164.7 hPa Calm     96 % 0.0 in /  0 mm
08:36 2.8 °F /  -16.2 °C 2.2 °F /  -16.6 °C 1009.0 in /  34164.7 hPa Calm     96 % 0.0 in /  0 mm
08:40 2.8 °F /  -16.2 °C 2.2 °F /  -16.6 °C 1009.0 in /  34164.7 hPa Calm     96 % 0.0 in /  0 mm
08:44 2.8 °F /  -16.2 °C 2.2 °F /  -16.6 °C 1008.0 in /  34130.9 hPa Calm     96 % 0.0 in /  0 mm
08:46 2.9 °F /  -16.2 °C 2.3 °F /  -16.5 °C 1008.0 in /  34130.9 hPa Calm     96 % 0.0 in /  0 mm
08:49 2.9 °F /  -16.2 °C 2.3 °F /  -16.5 °C 1008.0 in /  34130.9 hPa Calm     96 % 0.0 in /  0 mm
08:54 2.9 °F /  -16.2 °C 2.3 °F /  -16.5 °C 1008.0 in /  34130.9 hPa Calm     96 % 0.0 in /  0 mm
08:56 2.9 °F /  -16.2 °C 2.3 °F /  -16.5 °C 1008.0 in /  34130.9 hPa Calm     96 % 0.0 in /  0 mm
09:04 3.0 °F /  -16.1 °C 2.4 °F /  -16.4 °C 1009.0 in /  34164.7 hPa Calm     96 % 0.0 in /  0 mm
09:09 3.0 °F /  -16.1 °C 2.4 °F /  -16.4 °C 1009.0 in /  34164.7 hPa Calm     96 % 0.0 in /  0 mm
09:10 3.0 °F /  -16.1 °C 2.4 °F /  -16.4 °C 1009.0 in /  34164.7 hPa Calm     96 % 0.0 in /  0 mm
09:16 3.1 °F /  -16.1 °C 2.5 °F /  -16.4 °C 1009.0 in /  34164.7 hPa Calm     96 % 0.0 in /  0 mm
09:17 3.1 °F /  -16.1 °C 2.5 °F /  -16.4 °C 1009.0 in /  34164.7 hPa Calm     96 % 0.0 in /  0 mm
09:22 3.1 °F /  -16.1 °C 2.5 °F /  -16.4 °C 1009.0 in /  34164.7 hPa Calm     96 % 0.0 in /  0 mm
09:23 3.1 °F /  -16.1 °C 2.5 °F /  -16.4 °C 1009.0 in /  34164.7 hPa Calm     96 % 0.0 in /  0 mm
09:28 3.2 °F /  -16 °C 2.6 °F /  -16.3 °C 1009.0 in /  34164.7 hPa Calm     96 % 0.0 in /  0 mm
09:33 3.3 °F /  -15.9 °C 2.7 °F /  -16.3 °C 1009.0 in /  34164.7 hPa Calm     96 % 0.0 in /  0 mm
09:40 3.3 °F /  -15.9 °C 2.7 °F /  -16.3 °C 1009.0 in /  34164.7 hPa Calm   4.0 mph /  6.4 km/h 96 % 0.0 in /  0 mm
09:44 3.4 °F /  -15.9 °C 2.8 °F /  -16.2 °C 1008.0 in /  34130.9 hPa SSW 1.6 mph /  2.6 km/h 5.0 mph /  8 km/h 96 % 0.0 in /  0 mm
09:45 3.4 °F /  -15.9 °C 2.8 °F /  -16.2 °C 1008.0 in /  34130.9 hPa SSW 2.1 mph /  3.4 km/h 5.0 mph /  8 km/h 96 % 0.0 in /  0 mm
09:49 3.4 °F /  -15.9 °C 2.8 °F /  -16.2 °C 1008.0 in /  34130.9 hPa SSW 2.9 mph /  4.7 km/h 5.0 mph /  8 km/h 96 % 0.0 in /  0 mm
09:55 3.5 °F /  -15.8 °C 2.9 °F /  -16.2 °C 1008.0 in /  34130.9 hPa SSW 3.1 mph /  5 km/h 4.7 mph /  7.6 km/h 96 % 0.0 in /  0 mm
10:00 3.6 °F /  -15.8 °C 3.0 °F /  -16.1 °C 1009.0 in /  34164.7 hPa SSW 3.4 mph /  5.5 km/h 7.6 mph /  12.2 km/h 96 % 0.0 in /  0 mm
10:01 3.6 °F /  -15.8 °C 3.0 °F /  -16.1 °C 1009.0 in /  34164.7 hPa SSW 3.7 mph /  6 km/h 7.6 mph /  12.2 km/h 96 % 0.0 in /  0 mm
10:06 3.6 °F /  -15.8 °C 3.0 °F /  -16.1 °C 1009.0 in /  34164.7 hPa SW 3.1 mph /  5 km/h 7.6 mph /  12.2 km/h 96 % 0.0 in /  0 mm
10:11 3.7 °F /  -15.7 °C 3.1 °F /  -16.1 °C 1009.0 in /  34164.7 hPa SW 1.8 mph /  2.9 km/h 5.0 mph /  8 km/h 96 % 0.0 in /  0 mm
10:13 3.7 °F /  -15.7 °C 3.1 °F /  -16.1 °C 1009.0 in /  34164.7 hPa SW 1.1 mph /  1.8 km/h 5.0 mph /  8 km/h 96 % 0.0 in /  0 mm
10:17 3.7 °F /  -15.7 °C 3.1 °F /  -16.1 °C 1009.0 in /  34164.7 hPa SSW 0.2 mph /  0.3 km/h 1.8 mph /  2.9 km/h 96 % 0.0 in /  0 mm
10:20 3.8 °F /  -15.7 °C 3.2 °F /  -16 °C 1009.0 in /  34164.7 hPa Calm   3.5 mph /  5.6 km/h 96 % 0.0 in /  0 mm
10:23 3.8 °F /  -15.7 °C 3.2 °F /  -16 °C 1009.0 in /  34164.7 hPa SSW 0.3 mph /  0.5 km/h 3.5 mph /  5.6 km/h 96 % 0.0 in /  0 mm
10:26 3.9 °F /  -15.6 °C 3.3 °F /  -15.9 °C 1009.0 in /  34164.7 hPa SSW 0.3 mph /  0.5 km/h 3.5 mph /  5.6 km/h 96 % 0.0 in /  0 mm
10:31 4.0 °F /  -15.6 °C 3.4 °F /  -15.9 °C 1009.0 in /  34164.7 hPa North 0.2 mph /  0.3 km/h   96 % 0.0 in /  0 mm
10:32 4.0 °F /  -15.6 °C 3.4 °F /  -15.9 °C 1009.0 in /  34164.7 hPa Calm     96 % 0.0 in /  0 mm
10:33 4.0 °F /  -15.6 °C 3.4 °F /  -15.9 °C 1009.0 in /  34164.7 hPa Calm   3.2 mph /  5.1 km/h 96 % 0.0 in /  0 mm
10:38 4.0 °F /  -15.6 °C 3.4 °F /  -15.9 °C 1009.0 in /  34164.7 hPa SSW 0.2 mph /  0.3 km/h 3.2 mph /  5.1 km/h 96 % 0.0 in /  0 mm
10:44 4.1 °F /  -15.5 °C 3.5 °F /  -15.8 °C 1009.0 in /  34164.7 hPa SE 0.8 mph /  1.3 km/h 3.5 mph /  5.6 km/h 96 % 0.0 in /  0 mm
10:52 4.1 °F /  -15.5 °C 3.5 °F /  -15.8 °C 1009.0 in /  34164.7 hPa SE 1.4 mph /  2.3 km/h 4.0 mph /  6.4 km/h 96 % 0.0 in /  0 mm
10:58 4.1 °F /  -15.5 °C 3.5 °F /  -15.8 °C 1009.0 in /  34164.7 hPa SE 1.0 mph /  1.6 km/h 4.0 mph /  6.4 km/h 96 % 0.0 in /  0 mm
11:03 4.2 °F /  -15.4 °C 3.6 °F /  -15.8 °C 1009.0 in /  34164.7 hPa South 0.3 mph /  0.5 km/h 2.6 mph /  4.2 km/h 96 % 0.0 in /  0 mm
11:08 4.2 °F /  -15.4 °C 3.6 °F /  -15.8 °C 1009.0 in /  34164.7 hPa North 0.2 mph /  0.3 km/h   96 % 0.0 in /  0 mm
11:09 4.2 °F /  -15.4 °C 3.6 °F /  -15.8 °C 1009.0 in /  34164.7 hPa Calm     96 % 0.0 in /  0 mm
11:13 4.1 °F /  -15.5 °C 3.5 °F /  -15.8 °C 1009.0 in /  34164.7 hPa Calm     96 % 0.0 in /  0 mm
11:15 4.2 °F /  -15.4 °C 3.6 °F /  -15.8 °C 1009.0 in /  34164.7 hPa Calm     96 % 0.0 in /  0 mm
11:20 4.2 °F /  -15.4 °C 3.6 °F /  -15.8 °C 1009.0 in /  34164.7 hPa Calm     96 % 0.0 in /  0 mm
11:21 4.2 °F /  -15.4 °C 3.6 °F /  -15.8 °C 1009.0 in /  34164.7 hPa Calm     96 % 0.0 in /  0 mm
11:26 4.3 °F /  -15.4 °C 3.7 °F /  -15.7 °C 1009.0 in /  34164.7 hPa Calm     96 % 0.0 in /  0 mm
11:28 4.3 °F /  -15.4 °C 3.7 °F /  -15.7 °C 1009.0 in /  34164.7 hPa Calm     96 % 0.0 in /  0 mm
11:31 4.3 °F /  -15.4 °C 3.7 °F /  -15.7 °C 1009.0 in /  34164.7 hPa Calm     96 % 0.0 in /  0 mm
11:36 4.4 °F /  -15.3 °C 3.8 °F /  -15.7 °C 1009.0 in /  34164.7 hPa Calm     96 % 0.0 in /  0 mm
11:37 4.4 °F /  -15.3 °C 3.8 °F /  -15.7 °C 1009.0 in /  34164.7 hPa Calm     96 % 0.0 in /  0 mm
11:42 4.4 °F /  -15.3 °C 3.8 °F /  -15.7 °C 1009.0 in /  34164.7 hPa Calm     96 % 0.0 in /  0 mm
11:46 4.5 °F /  -15.3 °C 3.9 °F /  -15.6 °C 1009.0 in /  34164.7 hPa Calm     96 % 0.0 in /  0 mm
11:49 4.6 °F /  -15.2 °C 4.0 °F /  -15.6 °C 1009.0 in /  34164.7 hPa Calm     96 % 0.0 in /  0 mm
11:54 4.7 °F /  -15.2 °C 4.1 °F /  -15.5 °C 1009.0 in /  34164.7 hPa SE 0.5 mph /  0.8 km/h 4.7 mph /  7.6 km/h 96 % 0.0 in /  0 mm
11:58 4.7 °F /  -15.2 °C 4.1 °F /  -15.5 °C 1010.0 in /  34198.6 hPa SE 1.3 mph /  2.1 km/h 4.7 mph /  7.6 km/h 96 % 0.0 in /  0 mm
12:05 4.9 °F /  -15.1 °C 4.3 °F /  -15.4 °C 1010.0 in /  34198.6 hPa SE 2.6 mph /  4.2 km/h 5.5 mph /  8.9 km/h 96 % 0.0 in /  0 mm
12:10 5.0 °F /  -15 °C 4.4 °F /  -15.3 °C 1010.0 in /  34198.6 hPa SE 3.7 mph /  6 km/h 5.5 mph /  8.9 km/h 96 % 0.0 in /  0 mm
12:11 5.0 °F /  -15 °C 4.4 °F /  -15.3 °C 1010.0 in /  34198.6 hPa SE 3.9 mph /  6.3 km/h 5.8 mph /  9.3 km/h 96 % 0.0 in /  0 mm
12:16 5.1 °F /  -14.9 °C 4.5 °F /  -15.3 °C 1010.0 in /  34198.6 hPa SE 2.7 mph /  4.3 km/h 5.8 mph /  9.3 km/h 96 % 0.0 in /  0 mm
12:18 5.2 °F /  -14.9 °C 4.6 °F /  -15.2 °C 1010.0 in /  34198.6 hPa SE 2.1 mph /  3.4 km/h 5.8 mph /  9.3 km/h 96 % 0.0 in /  0 mm
12:25 5.6 °F /  -14.7 °C 5.0 °F /  -15 °C 1010.0 in /  34198.6 hPa NE 0.3 mph /  0.5 km/h 5.5 mph /  8.9 km/h 96 % 0.0 in /  0 mm
12:30 5.8 °F /  -14.6 °C 5.2 °F /  -14.9 °C 1010.0 in /  34198.6 hPa ENE 1.1 mph /  1.8 km/h 5.5 mph /  8.9 km/h 96 % 0.0 in /  0 mm
12:34 6.1 °F /  -14.4 °C 5.5 °F /  -14.7 °C 1010.0 in /  34198.6 hPa NE 1.3 mph /  2.1 km/h 5.5 mph /  8.9 km/h 96 % 0.0 in /  0 mm
12:35 6.1 °F /  -14.4 °C 5.5 °F /  -14.7 °C 1010.0 in /  34198.6 hPa ENE 1.3 mph /  2.1 km/h 4.7 mph /  7.6 km/h 96 % 0.0 in /  0 mm
12:40 6.1 °F /  -14.4 °C 5.5 °F /  -14.7 °C 1010.0 in /  34198.6 hPa East 0.3 mph /  0.5 km/h 2.6 mph /  4.2 km/h 96 % 0.0 in /  0 mm
12:47 6.4 °F /  -14.2 °C 5.8 °F /  -14.6 °C 1009.0 in /  34164.7 hPa Calm   1.4 mph /  2.3 km/h 96 % 0.0 in /  0 mm
12:52 6.5 °F /  -14.2 °C 5.9 °F /  -14.5 °C 1009.0 in /  34164.7 hPa Calm   2.1 mph /  3.4 km/h 96 % 0.0 in /  0 mm
12:57 6.5 °F /  -14.2 °C 5.9 °F /  -14.5 °C 1009.0 in /  34164.7 hPa SSW 0.2 mph /  0.3 km/h 2.1 mph /  3.4 km/h 96 % 0.0 in /  0 mm
13:02 6.5 °F /  -14.2 °C 5.8 °F /  -14.6 °C 1009.0 in /  34164.7 hPa SW 0.2 mph /  0.3 km/h 2.1 mph /  3.4 km/h 95 % 0.0 in /  0 mm
13:03 6.5 °F /  -14.2 °C 5.8 °F /  -14.6 °C 1009.0 in /  34164.7 hPa SW 0.2 mph /  0.3 km/h 2.1 mph /  3.4 km/h 95 % 0.0 in /  0 mm
13:04 6.5 °F /  -14.2 °C 5.8 °F /  -14.6 °C 1009.0 in /  34164.7 hPa SW 0.2 mph /  0.3 km/h 2.1 mph /  3.4 km/h 95 % 0.0 in /  0 mm
13:09 6.5 °F /  -14.2 °C 5.8 °F /  -14.6 °C 1009.0 in /  34164.7 hPa Calm     95 % 0.0 in /  0 mm
13:14 6.5 °F /  -14.2 °C 5.8 °F /  -14.6 °C 1009.0 in /  34164.7 hPa Calm     95 % 0.0 in /  0 mm
13:15 6.5 °F /  -14.2 °C 5.8 °F /  -14.6 °C 1009.0 in /  34164.7 hPa Calm   4.7 mph /  7.6 km/h 95 % 0.0 in /  0 mm
13:19 6.6 °F /  -14.1 °C 5.8 °F /  -14.6 °C 1009.0 in /  34164.7 hPa South 1.0 mph /  1.6 km/h 5.5 mph /  8.9 km/h 95 % 0.0 in /  0 mm
13:22 6.7 °F /  -14.1 °C 5.9 °F /  -14.5 °C 1009.0 in /  34164.7 hPa SSW 1.9 mph /  3.1 km/h 5.5 mph /  8.9 km/h 95 % 0.0 in /  0 mm
13:27 6.7 °F /  -14.1 °C 5.9 °F /  -14.5 °C 1009.0 in /  34164.7 hPa SW 3.5 mph /  5.6 km/h 6.9 mph /  11.1 km/h 95 % 0.0 in /  0 mm
13:32 6.7 °F /  -14.1 °C 5.9 °F /  -14.5 °C 1010.0 in /  34198.6 hPa SW 3.2 mph /  5.1 km/h 6.9 mph /  11.1 km/h 95 % 0.0 in /  0 mm
13:33 6.7 °F /  -14.1 °C 5.9 °F /  -14.5 °C 1010.0 in /  34198.6 hPa SW 3.2 mph /  5.1 km/h 6.9 mph /  11.1 km/h 95 % 0.0 in /  0 mm
13:34 6.7 °F /  -14.1 °C 5.9 °F /  -14.5 °C 1010.0 in /  34198.6 hPa SW 3.1 mph /  5 km/h 5.5 mph /  8.9 km/h 95 % 0.0 in /  0 mm
13:39 6.7 °F /  -14.1 °C 5.9 °F /  -14.5 °C 1010.0 in /  34198.6 hPa SW 3.1 mph /  5 km/h 5.5 mph /  8.9 km/h 95 % 0.0 in /  0 mm
13:43 6.7 °F /  -14.1 °C 5.9 °F /  -14.5 °C 1010.0 in /  34198.6 hPa SW 2.6 mph /  4.2 km/h 5.5 mph /  8.9 km/h 95 % 0.0 in /  0 mm
13:44 6.7 °F /  -14.1 °C 5.9 °F /  -14.5 °C 1010.0 in /  34198.6 hPa WSW 2.3 mph /  3.7 km/h 5.5 mph /  8.9 km/h 95 % 0.0 in /  0 mm
13:48 6.6 °F /  -14.1 °C 5.7 °F /  -14.6 °C 1010.0 in /  34198.6 hPa SW 1.0 mph /  1.6 km/h 6.1 mph /  9.8 km/h 94 % 0.0 in /  0 mm
13:53 6.6 °F /  -14.1 °C 5.7 °F /  -14.6 °C 1010.0 in /  34198.6 hPa SW 1.4 mph /  2.3 km/h 6.4 mph /  10.3 km/h 94 % 0.0 in /  0 mm
13:56 6.6 °F /  -14.1 °C 5.7 °F /  -14.6 °C 1010.0 in /  34198.6 hPa SW 2.9 mph /  4.7 km/h 6.9 mph /  11.1 km/h 94 % 0.0 in /  0 mm
14:01 6.5 °F /  -14.2 °C 5.6 °F /  -14.7 °C 1010.0 in /  34198.6 hPa SW 4.3 mph /  6.9 km/h 7.6 mph /  12.2 km/h 94 % 0.0 in /  0 mm
14:02 6.5 °F /  -14.2 °C 5.6 °F /  -14.7 °C 1010.0 in /  34198.6 hPa SW 4.3 mph /  6.9 km/h 7.6 mph /  12.2 km/h 94 % 0.0 in /  0 mm
14:07 6.4 °F /  -14.2 °C 5.5 °F /  -14.7 °C 1010.0 in /  34198.6 hPa SW 3.2 mph /  5.1 km/h 7.6 mph /  12.2 km/h 94 % 0.0 in /  0 mm
14:12 6.4 °F /  -14.2 °C 5.5 °F /  -14.7 °C 1010.0 in /  34198.6 hPa SW 1.3 mph /  2.1 km/h 5.5 mph /  8.9 km/h 94 % 0.0 in /  0 mm
14:15 6.3 °F /  -14.3 °C 5.3 °F /  -14.8 °C 1010.0 in /  34198.6 hPa SW 1.3 mph /  2.1 km/h 5.5 mph /  8.9 km/h 93 % 0.0 in /  0 mm
14:17 6.3 °F /  -14.3 °C 5.3 °F /  -14.8 °C 1010.0 in /  34198.6 hPa SW 1.4 mph /  2.3 km/h 5.5 mph /  8.9 km/h 93 % 0.0 in /  0 mm
14:21 6.3 °F /  -14.3 °C 5.3 °F /  -14.8 °C 1010.0 in /  34198.6 hPa SW 2.4 mph /  3.9 km/h 5.5 mph /  8.9 km/h 93 % 0.0 in /  0 mm
14:26 6.3 °F /  -14.3 °C 5.3 °F /  -14.8 °C 1010.0 in /  34198.6 hPa SW 1.3 mph /  2.1 km/h 4.3 mph /  6.9 km/h 93 % 0.0 in /  0 mm
14:27 6.3 °F /  -14.3 °C 5.3 °F /  -14.8 °C 1010.0 in /  34198.6 hPa SW 1.1 mph /  1.8 km/h 5.5 mph /  8.9 km/h 93 % 0.0 in /  0 mm
14:32 6.2 °F /  -14.3 °C 5.2 °F /  -14.9 °C 1011.1 in /  34235.8 hPa West 1.6 mph /  2.6 km/h 5.5 mph /  8.9 km/h 93 % 0.0 in /  0 mm
14:35 6.2 °F /  -14.3 °C 5.2 °F /  -14.9 °C 1011.1 in /  34235.8 hPa West 1.8 mph /  2.9 km/h 5.5 mph /  8.9 km/h 93 % 0.0 in /  0 mm
14:37 6.2 °F /  -14.3 °C 5.2 °F /  -14.9 °C 1011.1 in /  34235.8 hPa WSW 1.6 mph /  2.6 km/h 4.7 mph /  7.6 km/h 93 % 0.0 in /  0 mm
14:42 6.2 °F /  -14.3 °C 5.2 °F /  -14.9 °C 1011.1 in /  34235.8 hPa SW 1.3 mph /  2.1 km/h 5.5 mph /  8.9 km/h 93 % 0.0 in /  0 mm
14:43 6.2 °F /  -14.3 °C 5.2 °F /  -14.9 °C 1011.1 in /  34235.8 hPa SW 1.6 mph /  2.6 km/h 5.8 mph /  9.3 km/h 93 % 0.0 in /  0 mm
14:46 6.2 °F /  -14.3 °C 5.0 °F /  -15 °C 1011.1 in /  34235.8 hPa SW 2.4 mph /  3.9 km/h 5.8 mph /  9.3 km/h 92 % 0.0 in /  0 mm
14:49 6.2 °F /  -14.3 °C 5.0 °F /  -15 °C 1011.1 in /  34235.8 hPa SSW 3.2 mph /  5.1 km/h 5.8 mph /  9.3 km/h 92 % 0.0 in /  0 mm
14:54 6.1 °F /  -14.4 °C 4.9 °F /  -15.1 °C 1011.1 in /  34235.8 hPa SW 4.2 mph /  6.8 km/h 6.4 mph /  10.3 km/h 92 % 0.0 in /  0 mm
14:55 6.1 °F /  -14.4 °C 4.9 °F /  -15.1 °C 1011.1 in /  34235.8 hPa SSW 3.9 mph /  6.3 km/h 6.4 mph /  10.3 km/h 92 % 0.0 in /  0 mm
14:57 6.1 °F /  -14.4 °C 4.9 °F /  -15.1 °C 1011.1 in /  34235.8 hPa SW 3.9 mph /  6.3 km/h 6.4 mph /  10.3 km/h 92 % 0.0 in /  0 mm
15:02 6.1 °F /  -14.4 °C 4.9 °F /  -15.1 °C 1011.1 in /  34235.8 hPa SW 2.3 mph /  3.7 km/h 4.7 mph /  7.6 km/h 92 % 0.0 in /  0 mm
15:06 6.1 °F /  -14.4 °C 4.9 °F /  -15.1 °C 1011.1 in /  34235.8 hPa SW 1.1 mph /  1.8 km/h 4.3 mph /  6.9 km/h 92 % 0.0 in /  0 mm
15:11 6.1 °F /  -14.4 °C 4.9 °F /  -15.1 °C 1011.1 in /  34235.8 hPa SW 1.3 mph /  2.1 km/h 5.8 mph /  9.3 km/h 92 % 0.0 in /  0 mm
15:13 6.0 °F /  -14.4 °C 4.8 °F /  -15.1 °C 1011.1 in /  34235.8 hPa SW 1.4 mph /  2.3 km/h 5.8 mph /  9.3 km/h 92 % 0.0 in /  0 mm
15:20 6.0 °F /  -14.4 °C 4.8 °F /  -15.1 °C 1011.1 in /  34235.8 hPa WSW 1.0 mph /  1.6 km/h 3.5 mph /  5.6 km/h 92 % 0.0 in /  0 mm
15:23 6.0 °F /  -14.4 °C 4.8 °F /  -15.1 °C 1011.1 in /  34235.8 hPa SW 0.3 mph /  0.5 km/h 3.5 mph /  5.6 km/h 92 % 0.0 in /  0 mm
15:25 6.0 °F /  -14.4 °C 4.7 °F /  -15.2 °C 1011.1 in /  34235.8 hPa SW 0.6 mph /  1 km/h 4.0 mph /  6.4 km/h 91 % 0.0 in /  0 mm
15:29 5.9 °F /  -14.5 °C 4.7 °F /  -15.2 °C 1011.1 in /  34235.8 hPa SW 1.4 mph /  2.3 km/h 4.0 mph /  6.4 km/h 92 % 0.0 in /  0 mm
15:32 5.9 °F /  -14.5 °C 4.7 °F /  -15.2 °C 1011.1 in /  34235.8 hPa SW 1.6 mph /  2.6 km/h 4.0 mph /  6.4 km/h 92 % 0.0 in /  0 mm
15:37 5.8 °F /  -14.6 °C 4.6 °F /  -15.2 °C 1011.1 in /  34235.8 hPa WSW 0.5 mph /  0.8 km/h 2.1 mph /  3.4 km/h 92 % 0.0 in /  0 mm
15:42 5.7 °F /  -14.6 °C 4.5 °F /  -15.3 °C 1011.1 in /  34235.8 hPa WSW 0.2 mph /  0.3 km/h 1.8 mph /  2.9 km/h 92 % 0.0 in /  0 mm
15:44 5.7 °F /  -14.6 °C 4.5 °F /  -15.3 °C 1010.0 in /  34198.6 hPa Calm     92 % 0.0 in /  0 mm
15:49 5.6 °F /  -14.7 °C 4.2 °F /  -15.4 °C 1010.0 in /  34198.6 hPa Calm     91 % 0.0 in /  0 mm
15:50 5.5 °F /  -14.7 °C 4.2 °F /  -15.4 °C 1010.0 in /  34198.6 hPa Calm     91 % 0.0 in /  0 mm
15:52 5.4 °F /  -14.8 °C 4.1 °F /  -15.5 °C 1010.0 in /  34198.6 hPa WSW 0.2 mph /  0.3 km/h 4.0 mph /  6.4 km/h 91 % 0.0 in /  0 mm
15:56 5.3 °F /  -14.8 °C 3.9 °F /  -15.6 °C 1010.0 in /  34198.6 hPa SW 0.6 mph /  1 km/h 4.0 mph /  6.4 km/h 91 % 0.0 in /  0 mm
15:57 5.3 °F /  -14.8 °C 3.9 °F /  -15.6 °C 1010.0 in /  34198.6 hPa SW 0.8 mph /  1.3 km/h 4.0 mph /  6.4 km/h 91 % 0.0 in /  0 mm
16:02 5.1 °F /  -14.9 °C 3.8 °F /  -15.7 °C 1011.1 in /  34235.8 hPa WSW 1.0 mph /  1.6 km/h 5.8 mph /  9.3 km/h 91 % 0.0 in /  0 mm
16:03 5.1 °F /  -14.9 °C 3.8 °F /  -15.7 °C 1011.1 in /  34235.8 hPa WSW 1.0 mph /  1.6 km/h 5.8 mph /  9.3 km/h 91 % 0.0 in /  0 mm
16:08 5.0 °F /  -15 °C 3.7 °F /  -15.7 °C 1011.1 in /  34235.8 hPa WSW 1.3 mph /  2.1 km/h 5.8 mph /  9.3 km/h 91 % 0.0 in /  0 mm
16:09 4.8 °F /  -15.1 °C 3.4 °F /  -15.9 °C 1011.1 in /  34235.8 hPa WSW 1.4 mph /  2.3 km/h 5.8 mph /  9.3 km/h 91 % 0.0 in /  0 mm
16:14 4.7 °F /  -15.2 °C 3.3 °F /  -15.9 °C 1011.1 in /  34235.8 hPa SW 1.0 mph /  1.6 km/h 3.5 mph /  5.6 km/h 91 % 0.0 in /  0 mm
16:15 4.7 °F /  -15.2 °C 3.3 °F /  -15.9 °C 1011.1 in /  34235.8 hPa SW 0.6 mph /  1 km/h 3.5 mph /  5.6 km/h 91 % 0.0 in /  0 mm
16:20 4.5 °F /  -15.3 °C 3.2 °F /  -16 °C 1011.1 in /  34235.8 hPa Calm     91 % 0.0 in /  0 mm
16:21 4.5 °F /  -15.3 °C 3.2 °F /  -16 °C 1011.1 in /  34235.8 hPa Calm     91 % 0.0 in /  0 mm
16:22 4.4 °F /  -15.3 °C 3.1 °F /  -16.1 °C 1011.1 in /  34235.8 hPa Calm     91 % 0.0 in /  0 mm
16:27 4.3 °F /  -15.4 °C 2.9 °F /  -16.2 °C 1011.1 in /  34235.8 hPa Calm     91 % 0.0 in /  0 mm
16:29 4.2 °F /  -15.4 °C 2.9 °F /  -16.2 °C 1012.1 in /  34269.7 hPa Calm     91 % 0.0 in /  0 mm
16:34 4.0 °F /  -15.6 °C 2.7 °F /  -16.3 °C 1012.1 in /  34269.7 hPa Calm   1.8 mph /  2.9 km/h 91 % 0.0 in /  0 mm
16:36 4.0 °F /  -15.6 °C 2.7 °F /  -16.3 °C 1012.1 in /  34269.7 hPa Calm   1.8 mph /  2.9 km/h 91 % 0.0 in /  0 mm
16:39 3.8 °F /  -15.7 °C 2.4 °F /  -16.4 °C 1012.1 in /  34269.7 hPa Calm   1.8 mph /  2.9 km/h 91 % 0.0 in /  0 mm
16:44 3.6 °F /  -15.8 °C 2.3 °F /  -16.5 °C 1012.1 in /  34269.7 hPa NNW 0.2 mph /  0.3 km/h 2.6 mph /  4.2 km/h 91 % 0.0 in /  0 mm
16:49 3.4 °F /  -15.9 °C 2.1 °F /  -16.6 °C 1012.1 in /  34269.7 hPa NW 0.3 mph /  0.5 km/h 2.6 mph /  4.2 km/h 91 % 0.0 in /  0 mm
16:50 3.4 °F /  -15.9 °C 2.1 °F /  -16.6 °C 1012.1 in /  34269.7 hPa NW 0.3 mph /  0.5 km/h 2.6 mph /  4.2 km/h 91 % 0.0 in /  0 mm
16:55 3.3 °F /  -15.9 °C 1.9 °F /  -16.7 °C 1012.1 in /  34269.7 hPa WNW 0.2 mph /  0.3 km/h 2.1 mph /  3.4 km/h 91 % 0.0 in /  0 mm
17:00 3.1 °F /  -16.1 °C 1.8 °F /  -16.8 °C 1012.1 in /  34269.7 hPa Calm     91 % 0.0 in /  0 mm
17:05 3.0 °F /  -16.1 °C 1.7 °F /  -16.8 °C 1012.1 in /  34269.7 hPa Calm     91 % 0.0 in /  0 mm
17:06 2.9 °F /  -16.2 °C 1.6 °F /  -16.9 °C 1012.1 in /  34269.7 hPa Calm     91 % 0.0 in /  0 mm
17:11 2.7 °F /  -16.3 °C 1.4 °F /  -17 °C 1012.1 in /  34269.7 hPa Calm     91 % 0.0 in /  0 mm
17:13 2.6 °F /  -16.3 °C 1.3 °F /  -17.1 °C 1012.1 in /  34269.7 hPa Calm     91 % 0.0 in /  0 mm
17:18 2.6 °F /  -16.3 °C 1.3 °F /  -17.1 °C 1012.1 in /  34269.7 hPa Calm     91 % 0.0 in /  0 mm
17:23 2.4 °F /  -16.4 °C 1.1 °F /  -17.2 °C 1012.1 in /  34269.7 hPa Calm     91 % 0.0 in /  0 mm
17:28 2.3 °F /  -16.5 °C 1.0 °F /  -17.2 °C 1012.1 in /  34269.7 hPa Calm     91 % 0.0 in /  0 mm
17:29 2.3 °F /  -16.5 °C 1.0 °F /  -17.2 °C 1012.1 in /  34269.7 hPa Calm     91 % 0.0 in /  0 mm
17:34 2.1 °F /  -16.6 °C 0.8 °F /  -17.3 °C 1012.1 in /  34269.7 hPa NNW 0.8 mph /  1.3 km/h 3.2 mph /  5.1 km/h 91 % 0.0 in /  0 mm
17:42 2.0 °F /  -16.7 °C 0.7 °F /  -17.4 °C 1012.1 in /  34269.7 hPa NNW 0.8 mph /  1.3 km/h 3.2 mph /  5.1 km/h 91 % 0.0 in /  0 mm
17:47 1.9 °F /  -16.7 °C 0.6 °F /  -17.4 °C 1013.1 in /  34303.6 hPa West 0.6 mph /  1 km/h 5.0 mph /  8 km/h 91 % 0.0 in /  0 mm
17:50 1.9 °F /  -16.7 °C 0.6 °F /  -17.4 °C 1013.1 in /  34303.6 hPa WNW 0.6 mph /  1 km/h 5.0 mph /  8 km/h 91 % 0.0 in /  0 mm
17:53 1.9 °F /  -16.7 °C 0.6 °F /  -17.4 °C 1013.1 in /  34303.6 hPa WNW 1.1 mph /  1.8 km/h 5.0 mph /  8 km/h 91 % 0.0 in /  0 mm
17:56 1.9 °F /  -16.7 °C 0.6 °F /  -17.4 °C 1013.1 in /  34303.6 hPa WSW 1.4 mph /  2.3 km/h 4.0 mph /  6.4 km/h 91 % 0.0 in /  0 mm
18:01 2.0 °F /  -16.7 °C 0.7 °F /  -17.4 °C 1013.1 in /  34303.6 hPa WSW 1.3 mph /  2.1 km/h 4.0 mph /  6.4 km/h 91 % 0.0 in /  0 mm
18:05 2.0 °F /  -16.7 °C 0.7 °F /  -17.4 °C 1013.1 in /  34303.6 hPa SW 0.6 mph /  1 km/h 4.0 mph /  6.4 km/h 91 % 0.0 in /  0 mm
18:10 2.1 °F /  -16.6 °C 0.8 °F /  -17.3 °C 1013.1 in /  34303.6 hPa North 0.3 mph /  0.5 km/h 4.0 mph /  6.4 km/h 91 % 0.0 in /  0 mm
18:14 2.1 °F /  -16.6 °C 0.8 °F /  -17.3 °C 1013.1 in /  34303.6 hPa North 0.3 mph /  0.5 km/h 4.0 mph /  6.4 km/h 91 % 0.0 in /  0 mm
18:15 2.2 °F /  -16.6 °C 1.1 °F /  -17.2 °C 1013.1 in /  34303.6 hPa North 0.3 mph /  0.5 km/h 4.0 mph /  6.4 km/h 92 % 0.0 in /  0 mm
18:20 2.3 °F /  -16.5 °C 1.1 °F /  -17.2 °C 1013.1 in /  34303.6 hPa Calm     92 % 0.0 in /  0 mm
18:24 2.4 °F /  -16.4 °C 1.2 °F /  -17.1 °C 1013.1 in /  34303.6 hPa Calm     92 % 0.0 in /  0 mm
18:29 2.5 °F /  -16.4 °C 1.3 °F /  -17.1 °C 1013.1 in /  34303.6 hPa Calm     92 % 0.0 in /  0 mm
18:30 2.5 °F /  -16.4 °C 1.3 °F /  -17.1 °C 1013.1 in /  34303.6 hPa Calm     92 % 0.0 in /  0 mm
18:35 2.6 °F /  -16.3 °C 1.4 °F /  -17 °C 1013.1 in /  34303.6 hPa NNW 0.2 mph /  0.3 km/h 4.7 mph /  7.6 km/h 92 % 0.0 in /  0 mm
18:39 2.7 °F /  -16.3 °C 1.7 °F /  -16.8 °C 1013.1 in /  34303.6 hPa NNW 0.6 mph /  1 km/h 4.7 mph /  7.6 km/h 93 % 0.0 in /  0 mm
18:44 2.7 °F /  -16.3 °C 1.7 °F /  -16.8 °C 1013.1 in /  34303.6 hPa NNW 1.4 mph /  2.3 km/h 5.0 mph /  8 km/h 93 % 0.0 in /  0 mm
18:47 2.7 °F /  -16.3 °C 1.7 °F /  -16.8 °C 1013.1 in /  34303.6 hPa NNW 1.0 mph /  1.6 km/h 5.0 mph /  8 km/h 93 % 0.0 in /  0 mm
18:52 2.7 °F /  -16.3 °C 1.7 °F /  -16.8 °C 1013.1 in /  34303.6 hPa West 0.6 mph /  1 km/h 5.0 mph /  8 km/h 93 % 0.0 in /  0 mm
18:56 2.7 °F /  -16.3 °C 1.7 °F /  -16.8 °C 1013.1 in /  34303.6 hPa West 1.6 mph /  2.6 km/h 5.0 mph /  8 km/h 93 % 0.0 in /  0 mm
19:02 2.7 °F /  -16.3 °C 1.7 °F /  -16.8 °C 1013.1 in /  34303.6 hPa West 1.1 mph /  1.8 km/h 4.0 mph /  6.4 km/h 93 % 0.0 in /  0 mm
19:07 2.7 °F /  -16.3 °C 1.7 °F /  -16.8 °C 1013.1 in /  34303.6 hPa NW 0.2 mph /  0.3 km/h 3.2 mph /  5.1 km/h 93 % 0.0 in /  0 mm
19:10 2.7 °F /  -16.3 °C 1.7 °F /  -16.8 °C 1013.1 in /  34303.6 hPa West 0.2 mph /  0.3 km/h 2.1 mph /  3.4 km/h 93 % 0.0 in /  0 mm
19:15 2.6 °F /  -16.3 °C 1.6 °F /  -16.9 °C 1013.1 in /  34303.6 hPa Calm   2.1 mph /  3.4 km/h 93 % 0.0 in /  0 mm
19:16 2.6 °F /  -16.3 °C 1.6 °F /  -16.9 °C 1013.1 in /  34303.6 hPa Calm   2.1 mph /  3.4 km/h 93 % 0.0 in /  0 mm
19:21 2.6 °F /  -16.3 °C 1.6 °F /  -16.9 °C 1013.1 in /  34303.6 hPa Calm   1.4 mph /  2.3 km/h 93 % 0.0 in /  0 mm
19:26 2.5 °F /  -16.4 °C 1.5 °F /  -16.9 °C 1013.1 in /  34303.6 hPa Calm   2.6 mph /  4.2 km/h 93 % 0.0 in /  0 mm
19:29 2.4 °F /  -16.4 °C 1.6 °F /  -16.9 °C 1012.1 in /  34269.7 hPa NNW 0.8 mph /  1.3 km/h 5.0 mph /  8 km/h 94 % 0.0 in /  0 mm
19:34 2.4 °F /  -16.4 °C 1.6 °F /  -16.9 °C 1012.1 in /  34269.7 hPa NNW 1.6 mph /  2.6 km/h 5.0 mph /  8 km/h 94 % 0.0 in /  0 mm
19:39 2.3 °F /  -16.5 °C 1.4 °F /  -17 °C 1012.1 in /  34269.7 hPa NNW 1.0 mph /  1.6 km/h 4.0 mph /  6.4 km/h 94 % 0.0 in /  0 mm
19:40 2.3 °F /  -16.5 °C 1.4 °F /  -17 °C 1012.1 in /  34269.7 hPa NNW 0.8 mph /  1.3 km/h 4.0 mph /  6.4 km/h 94 % 0.0 in /  0 mm
19:45 2.3 °F /  -16.5 °C 1.4 °F /  -17 °C 1012.1 in /  34269.7 hPa Calm     94 % 0.0 in /  0 mm
19:47 2.2 °F /  -16.6 °C 1.3 °F /  -17.1 °C 1012.1 in /  34269.7 hPa Calm     94 % 0.0 in /  0 mm
19:51 2.2 °F /  -16.6 °C 1.3 °F /  -17.1 °C 1012.1 in /  34269.7 hPa Calm     94 % 0.0 in /  0 mm
19:52 2.1 °F /  -16.6 °C 1.2 °F /  -17.1 °C 1012.1 in /  34269.7 hPa Calm     94 % 0.0 in /  0 mm
19:56 2.1 °F /  -16.6 °C 1.2 °F /  -17.1 °C 1012.1 in /  34269.7 hPa Calm     94 % 0.0 in /  0 mm
19:57 2.1 °F /  -16.6 °C 1.2 °F /  -17.1 °C 1012.1 in /  34269.7 hPa Calm     94 % 0.0 in /  0 mm
20:03 2.1 °F /  -16.6 °C 1.2 °F /  -17.1 °C 1013.1 in /  34303.6 hPa WNW 0.3 mph /  0.5 km/h 4.0 mph /  6.4 km/h 94 % 0.0 in /  0 mm
20:08 2.0 °F /  -16.7 °C 1.1 °F /  -17.2 °C 1013.1 in /  34303.6 hPa NW 0.3 mph /  0.5 km/h 4.0 mph /  6.4 km/h 94 % 0.0 in /  0 mm
20:13 2.0 °F /  -16.7 °C 1.1 °F /  -17.2 °C 1013.1 in /  34303.6 hPa NNW 0.3 mph /  0.5 km/h 3.5 mph /  5.6 km/h 94 % 0.0 in /  0 mm
20:14 2.0 °F /  -16.7 °C 1.1 °F /  -17.2 °C 1013.1 in /  34303.6 hPa NNW 0.3 mph /  0.5 km/h 3.5 mph /  5.6 km/h 94 % 0.0 in /  0 mm
20:19 1.9 °F /  -16.7 °C 1.1 °F /  -17.2 °C 1013.1 in /  34303.6 hPa NW 0.2 mph /  0.3 km/h 2.1 mph /  3.4 km/h 94 % 0.0 in /  0 mm
20:24 1.9 °F /  -16.7 °C 1.1 °F /  -17.2 °C 1013.1 in /  34303.6 hPa NNE 0.2 mph /  0.3 km/h 2.6 mph /  4.2 km/h 94 % 0.0 in /  0 mm
20:29 1.9 °F /  -16.7 °C 1.1 °F /  -17.2 °C 1013.1 in /  34303.6 hPa NE 0.2 mph /  0.3 km/h 2.6 mph /  4.2 km/h 94 % 0.0 in /  0 mm
20:34 1.8 °F /  -16.8 °C 0.9 °F /  -17.3 °C 1013.1 in /  34303.6 hPa Calm   2.6 mph /  4.2 km/h 94 % 0.0 in /  0 mm
20:36 1.8 °F /  -16.8 °C 1.1 °F /  -17.2 °C 1013.1 in /  34303.6 hPa WSW 0.3 mph /  0.5 km/h 2.6 mph /  4.2 km/h 95 % 0.0 in /  0 mm
20:39 1.8 °F /  -16.8 °C 1.1 °F /  -17.2 °C 1013.1 in /  34303.6 hPa WSW 0.3 mph /  0.5 km/h 2.6 mph /  4.2 km/h 95 % 0.0 in /  0 mm
20:42 1.8 °F /  -16.8 °C 1.1 °F /  -17.2 °C 1013.1 in /  34303.6 hPa WSW 0.5 mph /  0.8 km/h 2.6 mph /  4.2 km/h 95 % 0.0 in /  0 mm
20:45 1.8 °F /  -16.8 °C 1.1 °F /  -17.2 °C 1013.1 in /  34303.6 hPa North 0.2 mph /  0.3 km/h   95 % 0.0 in /  0 mm
20:51 1.7 °F /  -16.8 °C 1.0 °F /  -17.2 °C 1013.1 in /  34303.6 hPa Calm     95 % 0.0 in /  0 mm
20:56 1.7 °F /  -16.8 °C 1.0 °F /  -17.2 °C 1013.1 in /  34303.6 hPa NNW 0.2 mph /  0.3 km/h 3.2 mph /  5.1 km/h 95 % 0.0 in /  0 mm
20:57 1.7 °F /  -16.8 °C 1.0 °F /  -17.2 °C 1013.1 in /  34303.6 hPa NNW 0.3 mph /  0.5 km/h 3.2 mph /  5.1 km/h 95 % 0.0 in /  0 mm
21:02 1.6 °F /  -16.9 °C 0.9 °F /  -17.3 °C 1014.1 in /  34337.4 hPa NNW 0.5 mph /  0.8 km/h 3.5 mph /  5.6 km/h 95 % 0.0 in /  0 mm
21:06 1.6 °F /  -16.9 °C 0.9 °F /  -17.3 °C 1014.1 in /  34337.4 hPa NNW 0.2 mph /  0.3 km/h 3.5 mph /  5.6 km/h 95 % 0.0 in /  0 mm
21:14 1.6 °F /  -16.9 °C 0.9 °F /  -17.3 °C 1014.1 in /  34337.4 hPa NNW 0.2 mph /  0.3 km/h 2.6 mph /  4.2 km/h 95 % 0.0 in /  0 mm
21:18 1.6 °F /  -16.9 °C 0.9 °F /  -17.3 °C 1014.1 in /  34337.4 hPa NNW 0.2 mph /  0.3 km/h 2.6 mph /  4.2 km/h 95 % 0.0 in /  0 mm
21:25 1.6 °F /  -16.9 °C 0.9 °F /  -17.3 °C 1014.1 in /  34337.4 hPa Calm   1.8 mph /  2.9 km/h 95 % 0.0 in /  0 mm
21:26 1.6 °F /  -16.9 °C 0.9 °F /  -17.3 °C 1014.1 in /  34337.4 hPa Calm   4.3 mph /  6.9 km/h 95 % 0.0 in /  0 mm
21:32 1.6 °F /  -16.9 °C 0.9 °F /  -17.3 °C 1015.1 in /  34371.3 hPa North 1.1 mph /  1.8 km/h 5.5 mph /  8.9 km/h 95 % 0.0 in /  0 mm
21:34 1.6 °F /  -16.9 °C 0.9 °F /  -17.3 °C 1015.1 in /  34371.3 hPa NNW 1.8 mph /  2.9 km/h 5.8 mph /  9.3 km/h 95 % 0.0 in /  0 mm
21:39 1.6 °F /  -16.9 °C 0.9 °F /  -17.3 °C 1015.1 in /  34371.3 hPa WNW 3.1 mph /  5 km/h 6.9 mph /  11.1 km/h 95 % 0.0 in /  0 mm
21:41 1.6 °F /  -16.9 °C 0.9 °F /  -17.3 °C 1015.1 in /  34371.3 hPa WNW 2.7 mph /  4.3 km/h 6.9 mph /  11.1 km/h 95 % 0.0 in /  0 mm
21:46 1.6 °F /  -16.9 °C 0.9 °F /  -17.3 °C 1015.1 in /  34371.3 hPa WSW 1.1 mph /  1.8 km/h 5.8 mph /  9.3 km/h 95 % 0.0 in /  0 mm
21:51 1.6 °F /  -16.9 °C 0.9 °F /  -17.3 °C 1015.1 in /  34371.3 hPa WSW 1.3 mph /  2.1 km/h 5.8 mph /  9.3 km/h 95 % 0.0 in /  0 mm
21:52 1.6 °F /  -16.9 °C 0.9 °F /  -17.3 °C 1015.1 in /  34371.3 hPa WSW 1.4 mph /  2.3 km/h 5.8 mph /  9.3 km/h 95 % 0.0 in /  0 mm
21:57 1.6 °F /  -16.9 °C 0.9 °F /  -17.3 °C 1015.1 in /  34371.3 hPa WNW 2.3 mph /  3.7 km/h 5.0 mph /  8 km/h 95 % 0.0 in /  0 mm
21:59 1.6 °F /  -16.9 °C 0.9 °F /  -17.3 °C 1015.1 in /  34371.3 hPa WNW 1.9 mph /  3.1 km/h 5.0 mph /  8 km/h 95 % 0.0 in /  0 mm
22:04 1.6 °F /  -16.9 °C 0.9 °F /  -17.3 °C 1015.1 in /  34371.3 hPa NNW 1.1 mph /  1.8 km/h 5.0 mph /  8 km/h 95 % 0.0 in /  0 mm
22:05 1.6 °F /  -16.9 °C 0.9 °F /  -17.3 °C 1015.1 in /  34371.3 hPa NNW 1.1 mph /  1.8 km/h 5.0 mph /  8 km/h 95 % 0.0 in /  0 mm
22:10 1.6 °F /  -16.9 °C 0.9 °F /  -17.3 °C 1015.1 in /  34371.3 hPa ENE 0.5 mph /  0.8 km/h 4.3 mph /  6.9 km/h 95 % 0.0 in /  0 mm
22:11 1.6 °F /  -16.9 °C 0.9 °F /  -17.3 °C 1015.1 in /  34371.3 hPa ENE 0.5 mph /  0.8 km/h 4.3 mph /  6.9 km/h 95 % 0.0 in /  0 mm
22:13 1.6 °F /  -16.9 °C 0.9 °F /  -17.3 °C 1015.1 in /  34371.3 hPa NE 0.5 mph /  0.8 km/h 4.3 mph /  6.9 km/h 95 % 0.0 in /  0 mm
22:16 1.6 °F /  -16.9 °C 0.9 °F /  -17.3 °C 1015.1 in /  34371.3 hPa West 1.1 mph /  1.8 km/h 5.0 mph /  8 km/h 95 % 0.0 in /  0 mm
22:21 1.6 °F /  -16.9 °C 0.9 °F /  -17.3 °C 1015.1 in /  34371.3 hPa West 1.8 mph /  2.9 km/h 5.0 mph /  8 km/h 95 % 0.0 in /  0 mm
22:22 1.6 °F /  -16.9 °C 0.9 °F /  -17.3 °C 1015.1 in /  34371.3 hPa West 1.8 mph /  2.9 km/h 5.0 mph /  8 km/h 95 % 0.0 in /  0 mm
22:27 1.6 °F /  -16.9 °C 0.9 °F /  -17.3 °C 1015.1 in /  34371.3 hPa WNW 0.8 mph /  1.3 km/h 4.3 mph /  6.9 km/h 95 % 0.0 in /  0 mm
22:28 1.6 °F /  -16.9 °C 0.9 °F /  -17.3 °C 1015.1 in /  34371.3 hPa WNW 0.6 mph /  1 km/h 4.3 mph /  6.9 km/h 95 % 0.0 in /  0 mm
22:33 1.6 °F /  -16.9 °C 0.9 °F /  -17.3 °C 1015.1 in /  34371.3 hPa North 0.2 mph /  0.3 km/h 2.6 mph /  4.2 km/h 95 % 0.0 in /  0 mm
22:36 1.5 °F /  -16.9 °C 0.8 °F /  -17.3 °C 1015.1 in /  34371.3 hPa NW 0.3 mph /  0.5 km/h 3.2 mph /  5.1 km/h 95 % 0.0 in /  0 mm
22:41 1.5 °F /  -16.9 °C 0.8 °F /  -17.3 °C 1015.1 in /  34371.3 hPa NW 0.5 mph /  0.8 km/h 3.2 mph /  5.1 km/h 95 % 0.0 in /  0 mm
22:49 1.4 °F /  -17 °C 0.8 °F /  -17.3 °C 1014.1 in /  34337.4 hPa NW 1.0 mph /  1.6 km/h 4.7 mph /  7.6 km/h 96 % 0.0 in /  0 mm
22:54 1.5 °F /  -16.9 °C 0.9 °F /  -17.3 °C 1014.1 in /  34337.4 hPa WNW 0.6 mph /  1 km/h 4.0 mph /  6.4 km/h 96 % 0.0 in /  0 mm
22:55 1.5 °F /  -16.9 °C 0.9 °F /  -17.3 °C 1014.1 in /  34337.4 hPa North 0.6 mph /  1 km/h 3.2 mph /  5.1 km/h 96 % 0.0 in /  0 mm
22:56 1.5 °F /  -16.9 °C 0.9 °F /  -17.3 °C 1014.1 in /  34337.4 hPa NNE 0.5 mph /  0.8 km/h 4.0 mph /  6.4 km/h 96 % 0.0 in /  0 mm
23:01 1.5 °F /  -16.9 °C 0.9 °F /  -17.3 °C 1014.1 in /  34337.4 hPa NE 0.6 mph /  1 km/h 4.3 mph /  6.9 km/h 96 % 0.0 in /  0 mm
23:06 1.5 °F /  -16.9 °C 0.9 °F /  -17.3 °C 1014.1 in /  34337.4 hPa NNE 1.0 mph /  1.6 km/h 4.3 mph /  6.9 km/h 96 % 0.0 in /  0 mm
23:08 1.5 °F /  -16.9 °C 0.9 °F /  -17.3 °C 1014.1 in /  34337.4 hPa North 1.0 mph /  1.6 km/h 4.3 mph /  6.9 km/h 96 % 0.0 in /  0 mm
23:09 1.5 °F /  -16.9 °C 0.9 °F /  -17.3 °C 1014.1 in /  34337.4 hPa North 0.8 mph /  1.3 km/h 4.3 mph /  6.9 km/h 96 % 0.0 in /  0 mm
23:14 1.4 °F /  -17 °C 0.8 °F /  -17.3 °C 1015.1 in /  34371.3 hPa NNW 1.6 mph /  2.6 km/h 4.7 mph /  7.6 km/h 96 % 0.0 in /  0 mm
23:17 1.4 °F /  -17 °C 0.8 °F /  -17.3 °C 1015.1 in /  34371.3 hPa NW 1.1 mph /  1.8 km/h 4.7 mph /  7.6 km/h 96 % 0.0 in /  0 mm
23:19 1.4 °F /  -17 °C 0.8 °F /  -17.3 °C 1015.1 in /  34371.3 hPa NW 1.0 mph /  1.6 km/h 4.7 mph /  7.6 km/h 96 % 0.0 in /  0 mm
23:24 1.4 °F /  -17 °C 0.8 °F /  -17.3 °C 1015.1 in /  34371.3 hPa NW 0.5 mph /  0.8 km/h 4.3 mph /  6.9 km/h 96 % 0.0 in /  0 mm
23:26 1.3 °F /  -17.1 °C 0.7 °F /  -17.4 °C 1015.1 in /  34371.3 hPa NNW 0.6 mph /  1 km/h 4.3 mph /  6.9 km/h 96 % 0.0 in /  0 mm
23:31 1.3 °F /  -17.1 °C 0.7 °F /  -17.4 °C 1015.1 in /  34371.3 hPa NNW 0.6 mph /  1 km/h 4.3 mph /  6.9 km/h 96 % 0.0 in /  0 mm
23:32 1.3 °F /  -17.1 °C 0.7 °F /  -17.4 °C 1015.1 in /  34371.3 hPa NNW 0.5 mph /  0.8 km/h 4.3 mph /  6.9 km/h 96 % 0.0 in /  0 mm
23:37 1.2 °F /  -17.1 °C 0.6 °F /  -17.4 °C 1015.1 in /  34371.3 hPa NNW 0.3 mph /  0.5 km/h 2.6 mph /  4.2 km/h 96 % 0.0 in /  0 mm
23:39 1.2 °F /  -17.1 °C 0.6 °F /  -17.4 °C 1015.1 in /  34371.3 hPa NNW 0.3 mph /  0.5 km/h 2.6 mph /  4.2 km/h 96 % 0.0 in /  0 mm
23:44 1.2 °F /  -17.1 °C 0.6 °F /  -17.4 °C 1015.1 in /  34371.3 hPa NNW 0.3 mph /  0.5 km/h 2.6 mph /  4.2 km/h 96 % 0.0 in /  0 mm
23:50 1.3 °F /  -17.1 °C 0.7 °F /  -17.4 °C 1015.1 in /  34371.3 hPa NW 0.3 mph /  0.5 km/h 3.5 mph /  5.6 km/h 96 % 0.0 in /  0 mm
23:51 1.3 °F /  -17.1 °C 0.7 °F /  -17.4 °C 1015.1 in /  34371.3 hPa NW 0.3 mph /  0.5 km/h 3.5 mph /  5.6 km/h 96 % 0.0 in /  0 mm
23:56 1.3 °F /  -17.1 °C 0.7 °F /  -17.4 °C 1015.1 in /  34371.3 hPa NW 0.3 mph /  0.5 km/h 3.5 mph /  5.6 km/h 96 % 0.0 in /  0 mm
Vremenska postaja Senovo
Podatki zbrani iz Weather Underground - 3.5 mb

Script developed by  Jim McMurry - jmcmurry@mwt.net Adapted for the template by  Wim van der Kuil - Leuven-Template.eu

Vremenski podatki so objavljeni na:

European Weather Network

WeatherCloud

Weather Underground

AWEKAS

HAMweather, WeatherForYou, PWS Weather

MapView

Geostik

Slovenia weather network

Oprema, ki se uporablja:

Vremenski program
Cumulus

Vremenski server
Asus

Cumulus

Asus